LH254 / D-AIBH 7700 Squawk Report (13th of June, 2019)

Aircraft A319 Reg No. D-AIBH Age 7 years old
Model A319 Jet engines 2 First flight 18-07-12
Registered 01-08-12 Rollout 06-12 Delivered 01-08-12
Construction No. 5239 Line No. N/A Series 112
ADSHEX 3C6448 Airline name Lufthansa Owner N/A
Airfield based Frankfurt-Main~Hessen~D First tracked 2017-07-13 05:58:00
Time Lat Lon Altitude Heading Speed Vertical Rate
2019-06-13 15:28:31 GMT 50.036224 8.537895 0 160 7 0
2019-06-13 15:28:21 GMT 50.036591 8.537660 0 157 10 0
2019-06-13 15:28:09 GMT 50.036968 8.537913 0 250 15 0
2019-06-13 15:28:05 GMT 50.037045 8.538214 0 250 15 0
2019-06-13 15:28:00 GMT 50.037209 8.538919 0 250 17 0
2019-06-13 15:27:49 GMT 50.037487 8.540070 0 250 16 0
2019-06-13 15:27:36 GMT 50.037754 8.541202 0 247 16 0
2019-06-13 15:26:06 GMT 50.040874 8.553042 0 278 18 -832
2019-06-13 15:25:38 GMT 50.039829 8.554609 0 340 15 0
2019-06-13 15:25:30 GMT 50.039360 8.554971 0 306 16 0
2019-06-13 15:25:19 GMT 50.039131 8.556109 0 281 17 0
2019-06-13 15:25:13 GMT 50.039001 8.557199 0 278 18 0
2019-06-13 15:24:59 GMT 50.038879 8.558350 0 278 17 0
2019-06-13 15:24:51 GMT 50.038792 8.559240 0 278 11 0
2019-06-13 15:23:29 GMT 50.038708 8.560094 0 250 0 0
2019-06-13 15:22:39 GMT 50.038708 8.560076 0 250 0 0
2019-06-13 15:22:19 GMT 50.038708 8.560084 0 250 0 0
2019-06-13 15:21:47 GMT 50.038719 8.560084 0 250 0 0
2019-06-13 15:21:35 GMT 50.038719 8.560113 0 250 14 0
2019-06-13 15:21:25 GMT 50.038837 8.560632 1,425 250 35 0
2019-06-13 15:21:18 GMT 50.039394 8.562885 1,425 250 143 -704
2019-06-13 15:21:14 GMT 50.039669 8.564060 0 250 90 0
2019-06-13 15:21:09 GMT 50.040310 8.566734 0 250 90 0
2019-06-13 15:21:05 GMT 50.040943 8.569373 0 250 115 0
2019-06-13 15:20:55 GMT 50.042759 8.577075 0 250 148 0
2019-06-13 15:20:50 GMT 50.043686 8.580973 350 250 147 -384
2019-06-13 15:20:39 GMT 50.046432 8.592248 450 250 147 -704
2019-06-13 15:20:36 GMT 50.047894 8.598806 525 251 145 -768
2019-06-13 15:20:30 GMT 50.048729 8.602072 550 251 144 -768
2019-06-13 15:20:27 GMT 50.049240 8.604299 575 250 145 -832
2019-06-13 15:20:22 GMT 50.050415 8.609306 650 250 145 -832
2019-06-13 15:20:18 GMT 50.051384 8.613281 750 250 147 -896
2019-06-13 15:20:15 GMT 50.052361 8.617364 750 250 147 -896
2019-06-13 15:20:12 GMT 50.053059 8.620111 775 250 148 -896
2019-06-13 15:20:07 GMT 50.054317 8.625455 850 251 147 -960
2019-06-13 15:20:04 GMT 50.054829 8.627756 900 250 147 -704
2019-06-13 15:20:01 GMT 50.055527 8.630726 950 249 147 -512
2019-06-13 15:19:58 GMT 50.056038 8.632730 1,050 250 145 -704
2019-06-13 15:19:53 GMT 50.057713 8.639559 1,050 250 145 -704
2019-06-13 15:19:47 GMT 50.058739 8.643865 1,150 250 144 -768
2019-06-13 15:19:44 GMT 50.059483 8.646983 1,125 250 144 -768
2019-06-13 15:19:41 GMT 50.060028 8.649204 1,175 250 143 -704
2019-06-13 15:19:38 GMT 50.060715 8.652023 1,200 250 143 -768
2019-06-13 15:19:35 GMT 50.061676 8.656070 1,250 250 143 -768
2019-06-13 15:19:31 GMT 50.062557 8.659750 1,300 250 142 -704
2019-06-13 15:19:27 GMT 50.064102 8.666045 1,475 250 140 -768
2019-06-13 15:19:24 GMT 50.065292 8.671032 1,425 250 140 -768
2019-06-13 15:19:20 GMT 50.065292 8.671032 1,450 250 139 -768
2019-06-13 15:19:14 GMT 50.066345 8.675296 1,525 251 139 -768
2019-06-13 15:19:09 GMT 50.067444 8.680090 1,575 251 137 -704
2019-06-13 15:19:06 GMT 50.068283 8.684024 1,700 251 141 -704
2019-06-13 15:19:03 GMT 50.068840 8.686325 1,650 250 138 -704
2019-06-13 15:18:59 GMT 50.069870 8.690691 1,700 251 140 -704
2019-06-13 15:18:53 GMT 50.070831 8.694739 1,800 251 143 -768
2019-06-13 15:18:47 GMT 50.072113 8.700449 1,825 250 151 -768
2019-06-13 15:18:43 GMT 50.073303 8.705219 1,875 250 151 -768
2019-06-13 15:18:39 GMT 50.074242 8.708892 1,900 250 153 -704
2019-06-13 15:18:33 GMT 50.075867 8.716061 2,000 251 160 -832
2019-06-13 15:18:27 GMT 50.077332 8.722133 2,075 251 162 -832
2019-06-13 15:18:23 GMT 50.078476 8.727192 2,150 251 167 -768
2019-06-13 15:18:18 GMT 50.079548 8.731830 2,200 250 171 -960
2019-06-13 15:18:15 GMT 50.080666 8.736581 2,350 250 174 -1088
2019-06-13 15:18:12 GMT 50.081409 8.739550 2,400 251 178 -1216
2019-06-13 15:18:06 GMT 50.083134 8.746899 2,425 251 181 -832
2019-06-13 15:18:02 GMT 50.084202 8.751353 2,500 251 185 -1024
2019-06-13 15:17:58 GMT 50.085274 8.756029 2,550 251 189 -1280
2019-06-13 15:17:55 GMT 50.086166 8.760223 2,600 251 191 -1280
2019-06-13 15:17:52 GMT 50.087860 8.767524 2,725 250 194 -384
2019-06-13 15:17:46 GMT 50.089043 8.772360 2,725 250 195 -1344
2019-06-13 15:17:42 GMT 50.090347 8.777631 2,925 287 227 0
2019-06-13 15:17:39 GMT 50.090836 8.779594 2,900 250 197 -768
2019-06-13 15:17:34 GMT 50.092758 8.787545 2,925 250 200 -256
2019-06-13 15:17:31 GMT 50.093719 8.791809 2,950 250 201 -64
2019-06-13 15:17:28 GMT 50.094723 8.795892 2,950 250 204 -64
2019-06-13 15:17:24 GMT 50.098022 8.809734 2,975 251 208 0
2019-06-13 15:17:20 GMT 50.098022 8.809734 2,975 251 208 0
2019-06-13 15:17:17 GMT 50.098495 8.811926 2,975 252 209 64
2019-06-13 15:17:13 GMT 50.099304 8.815589 2,975 252 209 192
2019-06-13 15:17:10 GMT 50.100357 8.820463 2,950 253 211 0
2019-06-13 15:17:07 GMT 50.101662 8.826847 2,950 253 212 -256
2019-06-13 15:17:04 GMT 50.102173 8.829222 2,950 253 212 0
2019-06-13 15:16:59 GMT 50.103928 8.838212 2,975 256 215 0
2019-06-13 15:16:56 GMT 50.104843 8.843777 2,950 258 216 320
2019-06-13 15:16:51 GMT 50.105621 8.848620 2,950 264 221 192
2019-06-13 15:16:48 GMT 50.106174 8.853644 2,950 264 221 192
2019-06-13 15:16:43 GMT 50.106640 8.862849 2,950 288 226 -128
2019-06-13 15:16:38 GMT 50.106129 8.869530 2,975 286 227 -64
2019-06-13 15:16:33 GMT 50.104733 8.877770 2,975 288 226 192
2019-06-13 15:16:30 GMT 50.103615 8.882966 2,975 288 226 128
2019-06-13 15:16:27 GMT 50.102638 8.887346 2,975 288 226 64
2019-06-13 15:16:21 GMT 50.101055 8.895140 2,975 287 228 0
2019-06-13 15:16:17 GMT 50.099487 8.903624 2,975 286 234 0
2019-06-13 15:16:11 GMT 50.097839 8.912876 2,975 286 242 -384
2019-06-13 15:16:08 GMT 50.097145 8.916964 2,975 286 240 -256
2019-06-13 15:16:05 GMT 50.096352 8.921344 3,000 285 245 -576
2019-06-13 15:16:01 GMT 50.094772 8.930728 3,025 284 249 -960
2019-06-13 15:15:54 GMT 50.092953 8.941609 3,150 285 250 -896
2019-06-13 15:15:51 GMT 50.092209 8.946196 3,150 285 252 -960
2019-06-13 15:15:48 GMT 50.091187 8.952224 3,200 285 253 -960
2019-06-13 15:15:43 GMT 50.089325 8.962603 3,300 292 257 -832
2019-06-13 15:15:40 GMT 50.088718 8.965438 3,350 294 258 -832
2019-06-13 15:15:37 GMT 50.087677 8.969036 3,400 300 260 -896
2019-06-13 15:15:33 GMT 50.084518 8.977492 3,475 313 260 -960
2019-06-13 15:15:29 GMT 50.082367 8.981757 3,575 322 260 -1152
2019-06-13 15:15:21 GMT 50.074520 8.991716 3,650 330 260 -1088
2019-06-13 15:15:16 GMT 50.065536 8.997209 4,000 10 251 -384
2019-06-13 15:15:13 GMT 50.065536 8.997209 3,825 350 257 -1664
2019-06-13 15:15:10 GMT 50.061905 8.998322 3,900 355 256 -1280
2019-06-13 15:15:06 GMT 50.057808 8.998990 3,975 0 254 -832
2019-06-13 15:15:03 GMT 50.052639 8.998768 4,000 7 251 -384
2019-06-13 15:15:00 GMT 50.048824 8.997877 4,000 14 250 -192
2019-06-13 15:14:57 GMT 50.046680 8.997060 3,975 21 249 -320
2019-06-13 15:14:54 GMT 50.042770 8.995205 3,975 21 249 -320
2019-06-13 15:14:51 GMT 50.041142 8.994091 3,975 26 249 -64
2019-06-13 15:14:46 GMT 50.034393 8.988375 3,975 39 248 -768
2019-06-13 15:14:40 GMT 50.029678 8.982335 4,000 50 246 -128
2019-06-13 15:14:36 GMT 50.026569 8.977018 3,975 56 245 -320
2019-06-13 15:14:33 GMT 50.023453 8.970114 3,975 61 244 -384
2019-06-13 15:14:30 GMT 50.022472 8.967442 3,975 67 244 -64
2019-06-13 15:14:27 GMT 50.020111 8.959351 3,975 69 244 0
2019-06-13 15:14:19 GMT 50.018147 8.951334 3,975 69 247 0
2019-06-13 15:14:16 GMT 50.015537 8.940718 3,975 69 249 0
2019-06-13 15:14:10 GMT 50.014114 8.934776 3,975 69 251 0
2019-06-13 15:14:05 GMT 50.012184 8.926911 3,975 69 253 64
2019-06-13 15:14:02 GMT 50.011208 8.923200 3,975 69 254 64
2019-06-13 15:13:59 GMT 50.009392 8.915628 3,950 69 256 0
2019-06-13 15:13:53 GMT 50.006973 8.905904 3,950 69 262 0
2019-06-13 15:13:50 GMT 50.005463 8.899504 3,950 69 262 0
2019-06-13 15:13:43 GMT 50.002213 8.886494 3,950 69 267 0
2019-06-13 15:13:39 GMT 50.001202 8.882224 3,950 69 267 0
2019-06-13 15:13:32 GMT 49.997803 8.867897 3,975 69 267 0
2019-06-13 15:13:28 GMT 49.996490 8.862497 3,975 69 264 0
2019-06-13 15:13:24 GMT 49.994495 8.854015 3,975 70 263 128
2019-06-13 15:13:21 GMT 49.993057 8.847680 3,975 70 263 128
2019-06-13 15:13:18 GMT 49.992123 8.843771 3,975 70 260 0
2019-06-13 15:13:13 GMT 49.988754 8.829177 3,975 70 260 0
2019-06-13 15:13:07 GMT 49.987930 8.825419 3,975 70 259 64
2019-06-13 15:13:04 GMT 49.986771 8.820537 3,975 70 259 0
2019-06-13 15:13:01 GMT 49.985367 8.814071 3,975 70 258 0
2019-06-13 15:12:58 GMT 49.983856 8.807421 3,975 70 258 -64
2019-06-13 15:12:55 GMT 49.982765 8.803092 3,975 70 257 -64
2019-06-13 15:12:52 GMT 49.982162 8.800193 3,975 71 256 0
2019-06-13 15:12:49 GMT 49.980469 8.792604 3,975 71 255 64
2019-06-13 15:12:46 GMT 49.979507 8.788340 3,975 71 249 256
2019-06-13 15:12:42 GMT 49.977814 8.780750 3,975 71 253 0
2019-06-13 15:12:38 GMT 49.976440 8.773812 3,975 71 250 128
2019-06-13 15:12:35 GMT 49.975433 8.769547 3,975 71 249 256
2019-06-13 15:12:31 GMT 49.973373 8.760079 3,975 71 249 384
2019-06-13 15:12:25 GMT 49.971733 8.752837 3,925 70 249 448
2019-06-13 15:12:22 GMT 49.970707 8.748235 3,875 70 249 512
2019-06-13 15:12:16 GMT 49.968243 8.737397 3,875 70 250 640
2019-06-13 15:12:13 GMT 49.967285 8.732902 3,850 70 251 512
2019-06-13 15:12:10 GMT 49.965729 8.726036 3,800 70 253 448
2019-06-13 15:12:07 GMT 49.964333 8.720324 3,775 69 254 512
2019-06-13 15:12:04 GMT 49.963772 8.717651 3,750 69 254 384
2019-06-13 15:12:01 GMT 49.962608 8.713197 3,725 69 255 640
2019-06-13 15:11:58 GMT 49.961151 8.706882 3,700 69 256 448
2019-06-13 15:11:54 GMT 49.958836 8.697460 3,650 69 258 448
2019-06-13 15:11:51 GMT 49.956482 8.687656 3,625 69 261 192
2019-06-13 15:11:42 GMT 49.954102 8.677609 3,600 69 262 576
2019-06-13 15:11:38 GMT 49.949760 8.659082 3,525 69 262 384
2019-06-13 15:11:32 GMT 49.949760 8.659082 3,500 70 263 320
2019-06-13 15:11:25 GMT 49.947338 8.648393 3,475 70 262 640
2019-06-13 15:11:22 GMT 49.946175 8.643642 3,450 70 260 512
2019-06-13 15:11:19 GMT 49.944260 8.635471 3,400 70 259 512
2019-06-13 15:11:15 GMT 49.943569 8.632210 3,375 71 257 256
2019-06-13 15:11:11 GMT 49.941425 8.622783 3,325 71 257 320
2019-06-13 15:11:08 GMT 49.940643 8.619280 3,325 72 244 -192
2019-06-13 15:10:59 GMT 49.937073 8.602584 3,275 72 250 0
2019-06-13 15:10:54 GMT 49.935329 8.593832 3,275 72 246 -64
2019-06-13 15:10:51 GMT 49.934235 8.588417 3,300 172 146 640
2019-06-13 15:10:48 GMT 49.933548 8.584876 3,300 104 206 0
2019-06-13 15:10:45 GMT 49.932220 8.578804 3,300 75 228 -64
2019-06-13 15:10:40 GMT 49.930664 8.570782 3,300 78 224 -256
2019-06-13 15:10:36 GMT 49.929790 8.564065 3,300 104 206 0
2019-06-13 15:10:33 GMT 49.929558 8.559389 3,300 94 213 -128
2019-06-13 15:10:30 GMT 49.930389 8.550110 3,300 104 206 0
2019-06-13 15:10:25 GMT 49.930389 8.550110 3,225 133 190 448
2019-06-13 15:10:22 GMT 49.931808 8.544255 3,250 122 197 128
2019-06-13 15:10:19 GMT 49.933456 8.539846 3,225 130 192 384
2019-06-13 15:10:15 GMT 49.935837 8.535654 3,150 148 180 896
2019-06-13 15:10:11 GMT 49.938309 8.532888 3,175 148 180 896
2019-06-13 15:10:08 GMT 49.940727 8.530958 3,125 163 173 832
2019-06-13 15:10:05 GMT 49.942703 8.529944 2,950 177 153 2688
2019-06-13 15:10:00 GMT 49.946827 8.529028 3,050 177 164 704
2019-06-13 15:09:57 GMT 49.949203 8.528860 3,025 177 162 512
2019-06-13 15:09:54 GMT 49.950924 8.528731 3,000 176 159 448
2019-06-13 15:09:51 GMT 49.953461 8.528571 2,975 175 154 640
2019-06-13 15:09:48 GMT 49.955441 8.528286 2,950 179 153 1856
2019-06-13 15:09:44 GMT 49.960098 8.527559 2,825 172 146 640
2019-06-13 15:09:38 GMT 49.961582 8.527321 2,850 172 145 704
2019-06-13 15:09:35 GMT 49.963913 8.526875 2,800 173 142 1088
2019-06-13 15:09:31 GMT 49.966377 8.526430 2,750 174 141 1792
2019-06-13 15:09:28 GMT 49.968567 8.526113 2,600 180 144 1920
2019-06-13 15:09:25 GMT 49.971359 8.525910 2,525 180 144 1920
2019-06-13 15:09:19 GMT 49.975616 8.526041 2,350 183 146 1792
2019-06-13 15:09:15 GMT 49.977135 8.526133 2,200 184 151 1600
2019-06-13 15:09:12 GMT 49.979832 8.526430 2,125 184 152 1600
2019-06-13 15:09:07 GMT 49.982765 8.526653 2,025 183 153 1856
2019-06-13 15:09:04 GMT 49.984634 8.526836 1,950 182 153 2048
2019-06-13 15:09:00 GMT 49.987930 8.526908 1,850 179 153 1856
2019-06-13 15:08:57 GMT 49.989983 8.526875 1,750 178 154 2880
2019-06-13 15:08:54 GMT 49.992554 8.526764 1,600 177 153 2432
2019-06-13 15:08:50 GMT 49.995438 8.526547 1,475 178 154 2880

Making use of Plane Finder data

You are free to use the raw flight data, aircraft information and images provided in this report for your own purposes provided the data is correctly attributed to Plane Finder. We ask that you please credit Plane Finder and link to planefinder.net in close proximity to the content.

Optionally one of the following logos (no smaller then 150x24px) can be used and must link to planefinder.net

Embedding the Plane Finder map

You are welcome to embed the Plane Finder playback map on your website to offer visitors a more interactive experience. We suggest using the following HTML code:

<iframe src="//planefinder.net/data/report/LH254-D-AIBH-7700-squawk-2019-06-13/map" width="800" height="600" seamless="seamless"></iframe>

Where our data comes from

Plane Finder has a global network of data feeds and antenna radars that receive data broadcast directly from aircraft. The primary technologies used are ADS-B and MLAT. We also show feeds from the FAA and a FLARM glider feed.

Click here to find out more about the Plane Finder network.

How we collect our data